sensor_id;sensor_type;location;lat;lon;timestamp;P1;durP1;ratioP1;P2;durP2;ratioP2
69220;SDS011;56331;51.992;20.910;2023-02-28T00:01:23;5.05;;;3.27;;
69220;SDS011;56331;51.992;20.910;2023-02-28T00:03:50;5.53;;;3.30;;
69220;SDS011;56331;51.992;20.910;2023-02-28T00:06:17;5.20;;;3.08;;
69220;SDS011;56331;51.992;20.910;2023-02-28T00:08:43;4.12;;;3.33;;
69220;SDS011;56331;51.992;20.910;2023-02-28T00:11:10;4.67;;;2.75;;
69220;SDS011;56331;51.992;20.910;2023-02-28T00:13:40;4.42;;;2.98;;
69220;SDS011;56331;51.992;20.910;2023-02-28T00:16:09;6.87;;;3.75;;
69220;SDS011;56331;51.992;20.910;2023-02-28T00:18:39;5.20;;;3.33;;
69220;SDS011;56331;51.992;20.910;2023-02-28T00:21:06;5.10;;;3.00;;
69220;SDS011;56331;51.992;20.910;2023-02-28T00:23:33;7.12;;;3.08;;
69220;SDS011;56331;51.992;20.910;2023-02-28T00:25:59;5.15;;;3.08;;
69220;SDS011;56331;51.992;20.910;2023-02-28T00:28:26;5.80;;;2.90;;
69220;SDS011;56331;51.992;20.910;2023-02-28T00:30:54;5.30;;;3.00;;
69220;SDS011;56331;51.992;20.910;2023-02-28T00:33:23;5.42;;;2.70;;
69220;SDS011;56331;51.992;20.910;2023-02-28T00:35:49;4.87;;;3.00;;
69220;SDS011;56331;51.992;20.910;2023-02-28T00:38:20;5.22;;;3.00;;
69220;SDS011;56331;51.992;20.910;2023-02-28T00:40:47;4.28;;;2.92;;
69220;SDS011;56331;51.992;20.910;2023-02-28T00:43:13;5.30;;;2.80;;
69220;SDS011;56331;51.992;20.910;2023-02-28T00:45:40;4.72;;;2.90;;
69220;SDS011;56331;51.992;20.910;2023-02-28T00:48:06;4.45;;;2.98;;
69220;SDS011;56331;51.992;20.910;2023-02-28T00:50:32;4.92;;;2.98;;
69220;SDS011;56331;51.992;20.910;2023-02-28T00:52:59;5.15;;;3.20;;
69220;SDS011;56331;51.992;20.910;2023-02-28T00:55:26;5.22;;;2.98;;
69220;SDS011;56331;51.992;20.910;2023-02-28T00:57:53;5.62;;;3.15;;
69220;SDS011;56331;51.992;20.910;2023-02-28T01:00:19;4.87;;;3.12;;
69220;SDS011;56331;51.992;20.910;2023-02-28T01:02:46;4.22;;;2.58;;
69220;SDS011;56331;51.992;20.910;2023-02-28T01:05:14;4.10;;;2.75;;
69220;SDS011;56331;51.992;20.910;2023-02-28T01:07:40;4.78;;;3.02;;
69220;SDS011;56331;51.992;20.910;2023-02-28T01:10:07;5.12;;;3.30;;
69220;SDS011;56331;51.992;20.910;2023-02-28T01:12:34;3.40;;;2.75;;
69220;SDS011;56331;51.992;20.910;2023-02-28T01:15:01;6.22;;;3.10;;
69220;SDS011;56331;51.992;20.910;2023-02-28T01:17:27;5.20;;;2.90;;
69220;SDS011;56331;51.992;20.910;2023-02-28T01:19:54;5.50;;;3.00;;
69220;SDS011;56331;51.992;20.910;2023-02-28T01:22:21;5.75;;;3.37;;
69220;SDS011;56331;51.992;20.910;2023-02-28T01:24:48;4.62;;;3.08;;
69220;SDS011;56331;51.992;20.910;2023-02-28T01:27:14;5.55;;;3.15;;
69220;SDS011;56331;51.992;20.910;2023-02-28T01:29:41;6.00;;;3.40;;
69220;SDS011;56331;51.992;20.910;2023-02-28T01:32:07;6.28;;;3.67;;
69220;SDS011;56331;51.992;20.910;2023-02-28T01:34:33;4.33;;;2.98;;
69220;SDS011;56331;51.992;20.910;2023-02-28T01:37:00;4.92;;;3.20;;
69220;SDS011;56331;51.992;20.910;2023-02-28T01:39:29;4.92;;;3.12;;
69220;SDS011;56331;51.992;20.910;2023-02-28T01:41:55;5.20;;;3.25;;
69220;SDS011;56331;51.992;20.910;2023-02-28T01:47:27;3.92;;;2.80;;
69220;SDS011;56331;51.992;20.910;2023-02-28T01:49:56;4.17;;;2.95;;
69220;SDS011;56331;51.992;20.910;2023-02-28T01:52:24;4.87;;;3.20;;
69220;SDS011;56331;51.992;20.910;2023-02-28T01:54:53;4.30;;;3.00;;
69220;SDS011;56331;51.992;20.910;2023-02-28T01:57:30;5.78;;;3.40;;
69220;SDS011;56331;51.992;20.910;2023-02-28T02:00:00;4.33;;;3.17;;
69220;SDS011;56331;51.992;20.910;2023-02-28T02:02:33;5.55;;;3.40;;
69220;SDS011;56331;51.992;20.910;2023-02-28T02:05:08;5.25;;;3.42;;
69220;SDS011;56331;51.992;20.910;2023-02-28T02:07:39;4.95;;;3.35;;
69220;SDS011;56331;51.992;20.910;2023-02-28T02:15:57;4.87;;;3.37;;
69220;SDS011;56331;51.992;20.910;2023-02-28T02:34:45;5.30;;;3.37;;
69220;SDS011;56331;51.992;20.910;2023-02-28T02:37:25;5.42;;;3.80;;
69220;SDS011;56331;51.992;20.910;2023-02-28T02:40:09;5.87;;;3.85;;
69220;SDS011;56331;51.992;20.910;2023-02-28T02:42:40;5.42;;;3.47;;
69220;SDS011;56331;51.992;20.910;2023-02-28T02:45:22;5.20;;;3.30;;
69220;SDS011;56331;51.992;20.910;2023-02-28T02:50:17;5.40;;;3.35;;
69220;SDS011;56331;51.992;20.910;2023-02-28T02:55:14;6.70;;;4.15;;
69220;SDS011;56331;51.992;20.910;2023-02-28T03:00:20;6.60;;;3.90;;
69220;SDS011;56331;51.992;20.910;2023-02-28T03:02:47;5.67;;;3.98;;
69220;SDS011;56331;51.992;20.910;2023-02-28T03:05:21;7.75;;;3.92;;
69220;SDS011;56331;51.992;20.910;2023-02-28T03:10:29;7.25;;;4.47;;
69220;SDS011;56331;51.992;20.910;2023-02-28T03:13:04;7.08;;;4.12;;
69220;SDS011;56331;51.992;20.910;2023-02-28T03:15:40;6.62;;;4.45;;
69220;SDS011;56331;51.992;20.910;2023-02-28T03:18:10;6.00;;;4.45;;
69220;SDS011;56331;51.992;20.910;2023-02-28T03:23:10;6.35;;;4.85;;
69220;SDS011;56331;51.992;20.910;2023-02-28T03:33:46;8.85;;;5.25;;
69220;SDS011;56331;51.992;20.910;2023-02-28T03:38:45;7.22;;;4.92;;
69220;SDS011;56331;51.992;20.910;2023-02-28T03:41:15;9.00;;;5.45;;
69220;SDS011;56331;51.992;20.910;2023-02-28T03:43:53;7.90;;;5.08;;
69220;SDS011;56331;51.992;20.910;2023-02-28T03:46:21;6.67;;;5.08;;
69220;SDS011;56331;51.992;20.910;2023-02-28T03:48:56;7.70;;;5.33;;
69220;SDS011;56331;51.992;20.910;2023-02-28T03:51:26;7.28;;;5.22;;
69220;SDS011;56331;51.992;20.910;2023-02-28T03:53:59;8.47;;;5.17;;
69220;SDS011;56331;51.992;20.910;2023-02-28T03:56:32;7.65;;;5.45;;
69220;SDS011;56331;51.992;20.910;2023-02-28T03:59:05;8.18;;;5.75;;
69220;SDS011;56331;51.992;20.910;2023-02-28T04:01:41;6.13;;;4.57;;
69220;SDS011;56331;51.992;20.910;2023-02-28T04:04:10;7.70;;;4.90;;
69220;SDS011;56331;51.992;20.910;2023-02-28T04:06:38;8.25;;;5.10;;
69220;SDS011;56331;51.992;20.910;2023-02-28T04:09:06;7.97;;;5.65;;
69220;SDS011;56331;51.992;20.910;2023-02-28T04:14:04;8.00;;;5.03;;
69220;SDS011;56331;51.992;20.910;2023-02-28T04:16:33;7.87;;;5.40;;
69220;SDS011;56331;51.992;20.910;2023-02-28T04:19:06;7.92;;;5.40;;
69220;SDS011;56331;51.992;20.910;2023-02-28T04:21:31;9.35;;;5.97;;
69220;SDS011;56331;51.992;20.910;2023-02-28T04:24:02;8.60;;;5.83;;
69220;SDS011;56331;51.992;20.910;2023-02-28T04:26:33;8.98;;;5.65;;
69220;SDS011;56331;51.992;20.910;2023-02-28T04:29:01;7.85;;;4.80;;
69220;SDS011;56331;51.992;20.910;2023-02-28T04:31:29;7.03;;;4.87;;
69220;SDS011;56331;51.992;20.910;2023-02-28T04:33:56;7.60;;;5.05;;
69220;SDS011;56331;51.992;20.910;2023-02-28T04:36:23;8.13;;;5.40;;
69220;SDS011;56331;51.992;20.910;2023-02-28T04:38:49;8.70;;;5.47;;
69220;SDS011;56331;51.992;20.910;2023-02-28T04:41:31;7.47;;;4.62;;
69220;SDS011;56331;51.992;20.910;2023-02-28T04:43:58;7.37;;;5.10;;
69220;SDS011;56331;51.992;20.910;2023-02-28T04:46:25;8.63;;;5.30;;
69220;SDS011;56331;51.992;20.910;2023-02-28T04:48:51;7.80;;;5.37;;
69220;SDS011;56331;51.992;20.910;2023-02-28T04:51:19;7.65;;;5.12;;
69220;SDS011;56331;51.992;20.910;2023-02-28T04:53:46;7.55;;;5.40;;
69220;SDS011;56331;51.992;20.910;2023-02-28T04:56:14;9.85;;;5.75;;
69220;SDS011;56331;51.992;20.910;2023-02-28T04:58:42;8.98;;;5.87;;
69220;SDS011;56331;51.992;20.910;2023-02-28T05:01:25;8.33;;;5.70;;
69220;SDS011;56331;51.992;20.910;2023-02-28T05:03:57;8.85;;;5.58;;
69220;SDS011;56331;51.992;20.910;2023-02-28T05:06:26;9.08;;;6.03;;
69220;SDS011;56331;51.992;20.910;2023-02-28T05:08:58;8.60;;;5.30;;
69220;SDS011;56331;51.992;20.910;2023-02-28T05:11:29;8.38;;;5.60;;
69220;SDS011;56331;51.992;20.910;2023-02-28T05:13:58;9.55;;;5.70;;
69220;SDS011;56331;51.992;20.910;2023-02-28T05:16:25;8.90;;;5.72;;
69220;SDS011;56331;51.992;20.910;2023-02-28T05:18:51;8.30;;;5.75;;
69220;SDS011;56331;51.992;20.910;2023-02-28T05:21:23;9.63;;;6.33;;
69220;SDS011;56331;51.992;20.910;2023-02-28T05:23:52;8.50;;;5.60;;
69220;SDS011;56331;51.992;20.910;2023-02-28T05:26:19;7.87;;;5.42;;
69220;SDS011;56331;51.992;20.910;2023-02-28T05:28:46;7.97;;;5.60;;
69220;SDS011;56331;51.992;20.910;2023-02-28T05:31:12;8.33;;;5.70;;
69220;SDS011;56331;51.992;20.910;2023-02-28T05:33:39;7.87;;;5.47;;
69220;SDS011;56331;51.992;20.910;2023-02-28T05:36:06;8.83;;;5.67;;
69220;SDS011;56331;51.992;20.910;2023-02-28T05:38:33;8.88;;;5.65;;
69220;SDS011;56331;51.992;20.910;2023-02-28T05:41:04;9.35;;;5.55;;
69220;SDS011;56331;51.992;20.910;2023-02-28T05:43:32;8.45;;;5.28;;
69220;SDS011;56331;51.992;20.910;2023-02-28T05:46:01;8.63;;;5.60;;
69220;SDS011;56331;51.992;20.910;2023-02-28T05:48:28;9.38;;;5.55;;
69220;SDS011;56331;51.992;20.910;2023-02-28T05:50:55;8.95;;;5.67;;
69220;SDS011;56331;51.992;20.910;2023-02-28T05:53:25;8.58;;;5.85;;
69220;SDS011;56331;51.992;20.910;2023-02-28T05:55:52;10.00;;;5.75;;
69220;SDS011;56331;51.992;20.910;2023-02-28T05:58:18;9.60;;;5.85;;
69220;SDS011;56331;51.992;20.910;2023-02-28T06:00:45;10.43;;;6.08;;
69220;SDS011;56331;51.992;20.910;2023-02-28T06:03:13;8.53;;;5.65;;
69220;SDS011;56331;51.992;20.910;2023-02-28T06:05:40;8.35;;;5.90;;
69220;SDS011;56331;51.992;20.910;2023-02-28T06:08:06;9.63;;;6.67;;
69220;SDS011;56331;51.992;20.910;2023-02-28T06:10:33;10.15;;;6.72;;
69220;SDS011;56331;51.992;20.910;2023-02-28T06:13:01;10.50;;;6.62;;
69220;SDS011;56331;51.992;20.910;2023-02-28T06:15:29;11.25;;;6.42;;
69220;SDS011;56331;51.992;20.910;2023-02-28T06:18:00;10.60;;;6.53;;
69220;SDS011;56331;51.992;20.910;2023-02-28T06:20:27;9.20;;;6.33;;
69220;SDS011;56331;51.992;20.910;2023-02-28T06:22:57;9.48;;;6.60;;
69220;SDS011;56331;51.992;20.910;2023-02-28T06:25:26;9.18;;;6.15;;
69220;SDS011;56331;51.992;20.910;2023-02-28T06:27:55;9.07;;;6.40;;
69220;SDS011;56331;51.992;20.910;2023-02-28T06:30:22;10.08;;;6.55;;
69220;SDS011;56331;51.992;20.910;2023-02-28T06:32:50;9.28;;;6.35;;
69220;SDS011;56331;51.992;20.910;2023-02-28T06:35:17;8.55;;;5.90;;
69220;SDS011;56331;51.992;20.910;2023-02-28T06:37:44;11.12;;;6.12;;
69220;SDS011;56331;51.992;20.910;2023-02-28T06:40:10;10.60;;;7.08;;
69220;SDS011;56331;51.992;20.910;2023-02-28T06:42:40;11.63;;;7.60;;
69220;SDS011;56331;51.992;20.910;2023-02-28T06:45:07;11.63;;;7.95;;
69220;SDS011;56331;51.992;20.910;2023-02-28T06:47:35;10.38;;;7.28;;
69220;SDS011;56331;51.992;20.910;2023-02-28T06:50:02;9.55;;;7.15;;
69220;SDS011;56331;51.992;20.910;2023-02-28T06:52:30;10.68;;;7.12;;
69220;SDS011;56331;51.992;20.910;2023-02-28T06:54:57;9.33;;;6.85;;
69220;SDS011;56331;51.992;20.910;2023-02-28T06:57:29;13.53;;;8.25;;
69220;SDS011;56331;51.992;20.910;2023-02-28T06:59:59;11.25;;;7.20;;
69220;SDS011;56331;51.992;20.910;2023-02-28T07:02:28;12.93;;;7.83;;
69220;SDS011;56331;51.992;20.910;2023-02-28T07:04:55;16.37;;;7.75;;
69220;SDS011;56331;51.992;20.910;2023-02-28T07:07:22;11.83;;;6.65;;
69220;SDS011;56331;51.992;20.910;2023-02-28T07:09:48;12.70;;;7.40;;
69220;SDS011;56331;51.992;20.910;2023-02-28T07:12:15;13.30;;;7.58;;
69220;SDS011;56331;51.992;20.910;2023-02-28T07:14:41;11.28;;;6.83;;
69220;SDS011;56331;51.992;20.910;2023-02-28T07:17:09;12.05;;;7.17;;
69220;SDS011;56331;51.992;20.910;2023-02-28T07:19:38;16.77;;;6.90;;
69220;SDS011;56331;51.992;20.910;2023-02-28T07:22:05;10.05;;;6.45;;
69220;SDS011;56331;51.992;20.910;2023-02-28T07:24:32;12.37;;;6.97;;
69220;SDS011;56331;51.992;20.910;2023-02-28T07:26:59;10.55;;;6.90;;
69220;SDS011;56331;51.992;20.910;2023-02-28T07:29:29;14.07;;;7.17;;
69220;SDS011;56331;51.992;20.910;2023-02-28T07:31:55;10.13;;;6.90;;
69220;SDS011;56331;51.992;20.910;2023-02-28T07:34:22;9.70;;;6.47;;
69220;SDS011;56331;51.992;20.910;2023-02-28T07:36:48;12.58;;;7.65;;
69220;SDS011;56331;51.992;20.910;2023-02-28T07:39:17;9.63;;;6.87;;
69220;SDS011;56331;51.992;20.910;2023-02-28T07:41:44;11.20;;;6.92;;
69220;SDS011;56331;51.992;20.910;2023-02-28T07:44:10;9.83;;;6.40;;
69220;SDS011;56331;51.992;20.910;2023-02-28T07:46:37;10.18;;;6.97;;
69220;SDS011;56331;51.992;20.910;2023-02-28T07:49:06;9.90;;;6.42;;
69220;SDS011;56331;51.992;20.910;2023-02-28T07:51:32;9.45;;;5.78;;
69220;SDS011;56331;51.992;20.910;2023-02-28T07:54:00;10.10;;;6.30;;
69220;SDS011;56331;51.992;20.910;2023-02-28T07:56:27;9.60;;;6.35;;
69220;SDS011;56331;51.992;20.910;2023-02-28T07:58:57;10.50;;;5.83;;
69220;SDS011;56331;51.992;20.910;2023-02-28T08:01:23;7.53;;;5.40;;
69220;SDS011;56331;51.992;20.910;2023-02-28T08:03:49;10.95;;;5.75;;
69220;SDS011;56331;51.992;20.910;2023-02-28T08:06:22;10.43;;;5.72;;
69220;SDS011;56331;51.992;20.910;2023-02-28T08:08:49;8.83;;;6.03;;
69220;SDS011;56331;51.992;20.910;2023-02-28T08:11:16;11.68;;;7.03;;
69220;SDS011;56331;51.992;20.910;2023-02-28T08:13:43;19.45;;;9.50;;
69220;SDS011;56331;51.992;20.910;2023-02-28T08:16:12;19.60;;;9.28;;
69220;SDS011;56331;51.992;20.910;2023-02-28T08:21:07;15.80;;;8.85;;
69220;SDS011;56331;51.992;20.910;2023-02-28T08:23:34;15.20;;;7.92;;
69220;SDS011;56331;51.992;20.910;2023-02-28T08:26:01;14.80;;;8.40;;
69220;SDS011;56331;51.992;20.910;2023-02-28T08:28:28;15.98;;;7.92;;
69220;SDS011;56331;51.992;20.910;2023-02-28T08:30:54;12.33;;;7.17;;
69220;SDS011;56331;51.992;20.910;2023-02-28T08:33:21;14.25;;;7.37;;
69220;SDS011;56331;51.992;20.910;2023-02-28T08:35:54;14.45;;;7.50;;
69220;SDS011;56331;51.992;20.910;2023-02-28T08:38:22;13.05;;;7.65;;
69220;SDS011;56331;51.992;20.910;2023-02-28T08:40:49;12.18;;;6.95;;
69220;SDS011;56331;51.992;20.910;2023-02-28T08:43:18;12.43;;;7.53;;
69220;SDS011;56331;51.992;20.910;2023-02-28T08:45:44;13.95;;;7.30;;
69220;SDS011;56331;51.992;20.910;2023-02-28T08:48:11;11.53;;;6.83;;
69220;SDS011;56331;51.992;20.910;2023-02-28T08:50:37;13.60;;;7.40;;
69220;SDS011;56331;51.992;20.910;2023-02-28T08:53:03;12.80;;;7.28;;
69220;SDS011;56331;51.992;20.910;2023-02-28T08:55:29;13.03;;;6.90;;
69220;SDS011;56331;51.992;20.910;2023-02-28T08:57:56;10.28;;;6.08;;
69220;SDS011;56331;51.992;20.910;2023-02-28T09:00:23;11.70;;;6.85;;
69220;SDS011;56331;51.992;20.910;2023-02-28T09:02:49;15.95;;;7.55;;
69220;SDS011;56331;51.992;20.910;2023-02-28T09:05:18;15.32;;;7.85;;
69220;SDS011;56331;51.992;20.910;2023-02-28T09:07:44;12.70;;;6.80;;
69220;SDS011;56331;51.992;20.910;2023-02-28T09:10:11;14.78;;;7.37;;
69220;SDS011;56331;51.992;20.910;2023-02-28T09:12:38;13.38;;;7.15;;
69220;SDS011;56331;51.992;20.910;2023-02-28T09:15:04;9.95;;;6.10;;
69220;SDS011;56331;51.992;20.910;2023-02-28T09:17:32;12.18;;;6.22;;
69220;SDS011;56331;51.992;20.910;2023-02-28T09:19:58;11.33;;;6.37;;
69220;SDS011;56331;51.992;20.910;2023-02-28T09:22:25;9.35;;;5.83;;
69220;SDS011;56331;51.992;20.910;2023-02-28T09:24:52;11.45;;;6.40;;
69220;SDS011;56331;51.992;20.910;2023-02-28T09:27:27;11.30;;;6.60;;
69220;SDS011;56331;51.992;20.910;2023-02-28T09:29:57;11.53;;;5.92;;
69220;SDS011;56331;51.992;20.910;2023-02-28T09:32:25;10.03;;;5.70;;
69220;SDS011;56331;51.992;20.910;2023-02-28T09:34:51;10.28;;;5.53;;
69220;SDS011;56331;51.992;20.910;2023-02-28T09:37:21;8.90;;;5.65;;
69220;SDS011;56331;51.992;20.910;2023-02-28T09:39:47;12.47;;;6.03;;
69220;SDS011;56331;51.992;20.910;2023-02-28T09:42:25;7.80;;;5.35;;
69220;SDS011;56331;51.992;20.910;2023-02-28T09:44:49;8.03;;;4.70;;
69220;SDS011;56331;51.992;20.910;2023-02-28T09:47:36;7.75;;;4.97;;
69220;SDS011;56331;51.992;20.910;2023-02-28T09:52:46;7.90;;;4.90;;
69220;SDS011;56331;51.992;20.910;2023-02-28T09:55:20;6.58;;;4.33;;
69220;SDS011;56331;51.992;20.910;2023-02-28T09:57:48;7.65;;;4.65;;
69220;SDS011;56331;51.992;20.910;2023-02-28T10:05:41;8.15;;;4.33;;
69220;SDS011;56331;51.992;20.910;2023-02-28T10:08:13;9.03;;;4.72;;
69220;SDS011;56331;51.992;20.910;2023-02-28T10:10:42;7.72;;;4.55;;
69220;SDS011;56331;51.992;20.910;2023-02-28T10:13:25;8.85;;;4.47;;
69220;SDS011;56331;51.992;20.910;2023-02-28T10:15:58;8.28;;;5.00;;
69220;SDS011;56331;51.992;20.910;2023-02-28T10:21:23;6.85;;;4.67;;
69220;SDS011;56331;51.992;20.910;2023-02-28T10:23:47;8.60;;;4.95;;
69220;SDS011;56331;51.992;20.910;2023-02-28T10:26:17;6.28;;;4.33;;
69220;SDS011;56331;51.992;20.910;2023-02-28T10:28:43;7.92;;;4.12;;
69220;SDS011;56331;51.992;20.910;2023-02-28T10:31:18;6.90;;;4.50;;
69220;SDS011;56331;51.992;20.910;2023-02-28T10:33:43;8.28;;;4.65;;
69220;SDS011;56331;51.992;20.910;2023-02-28T10:36:19;6.22;;;3.90;;
69220;SDS011;56331;51.992;20.910;2023-02-28T10:38:42;6.45;;;4.00;;
69220;SDS011;56331;51.992;20.910;2023-02-28T10:41:14;6.95;;;3.87;;
69220;SDS011;56331;51.992;20.910;2023-02-28T10:43:43;5.35;;;3.87;;
69220;SDS011;56331;51.992;20.910;2023-02-28T10:46:15;6.45;;;4.03;;
69220;SDS011;56331;51.992;20.910;2023-02-28T10:49:00;6.05;;;3.98;;
69220;SDS011;56331;51.992;20.910;2023-02-28T10:53:47;6.03;;;3.80;;
69220;SDS011;56331;51.992;20.910;2023-02-28T10:56:24;5.60;;;3.92;;
69220;SDS011;56331;51.992;20.910;2023-02-28T10:58:54;6.62;;;3.80;;
69220;SDS011;56331;51.992;20.910;2023-02-28T11:01:39;7.20;;;3.90;;
69220;SDS011;56331;51.992;20.910;2023-02-28T11:06:56;6.12;;;3.45;;
69220;SDS011;56331;51.992;20.910;2023-02-28T11:09:28;5.75;;;3.80;;
69220;SDS011;56331;51.992;20.910;2023-02-28T11:12:02;6.25;;;3.67;;
69220;SDS011;56331;51.992;20.910;2023-02-28T11:14:33;5.00;;;3.45;;
69220;SDS011;56331;51.992;20.910;2023-02-28T11:19:38;5.92;;;3.42;;
69220;SDS011;56331;51.992;20.910;2023-02-28T11:22:02;5.35;;;3.35;;
69220;SDS011;56331;51.992;20.910;2023-02-28T11:24:40;5.65;;;3.10;;
69220;SDS011;56331;51.992;20.910;2023-02-28T11:27:03;8.85;;;3.62;;
69220;SDS011;56331;51.992;20.910;2023-02-28T11:29:30;4.97;;;3.50;;
69220;SDS011;56331;51.992;20.910;2023-02-28T11:32:03;6.22;;;3.30;;
69220;SDS011;56331;51.992;20.910;2023-02-28T11:34:31;4.75;;;2.98;;
69220;SDS011;56331;51.992;20.910;2023-02-28T11:36:58;4.72;;;3.12;;
69220;SDS011;56331;51.992;20.910;2023-02-28T11:39:26;5.08;;;3.40;;
69220;SDS011;56331;51.992;20.910;2023-02-28T11:47:15;5.92;;;3.15;;
69220;SDS011;56331;51.992;20.910;2023-02-28T11:58:14;5.42;;;3.45;;
69220;SDS011;56331;51.992;20.910;2023-02-28T12:06:40;5.80;;;3.05;;
69220;SDS011;56331;51.992;20.910;2023-02-28T12:12:07;5.15;;;3.02;;
69220;SDS011;56331;51.992;20.910;2023-02-28T12:17:25;5.67;;;2.87;;
69220;SDS011;56331;51.992;20.910;2023-02-28T12:23:00;6.03;;;3.12;;
69220;SDS011;56331;51.992;20.910;2023-02-28T12:28:19;3.98;;;2.87;;
69220;SDS011;56331;51.992;20.910;2023-02-28T12:30:53;4.33;;;3.00;;
69220;SDS011;56331;51.992;20.910;2023-02-28T12:33:32;3.80;;;2.90;;
69220;SDS011;56331;51.992;20.910;2023-02-28T12:36:03;4.25;;;2.70;;
69220;SDS011;56331;51.992;20.910;2023-02-28T12:38:36;3.70;;;2.70;;
69220;SDS011;56331;51.992;20.910;2023-02-28T12:41:39;6.80;;;2.80;;
69220;SDS011;56331;51.992;20.910;2023-02-28T12:44:13;4.75;;;2.65;;
69220;SDS011;56331;51.992;20.910;2023-02-28T12:46:42;4.78;;;3.00;;
69220;SDS011;56331;51.992;20.910;2023-02-28T12:49:19;5.75;;;3.05;;
69220;SDS011;56331;51.992;20.910;2023-02-28T12:51:44;4.58;;;2.80;;
69220;SDS011;56331;51.992;20.910;2023-02-28T12:59:48;4.37;;;3.00;;
69220;SDS011;56331;51.992;20.910;2023-02-28T13:02:25;5.37;;;3.27;;
69220;SDS011;56331;51.992;20.910;2023-02-28T13:10:09;5.42;;;2.65;;
69220;SDS011;56331;51.992;20.910;2023-02-28T13:12:37;7.40;;;2.70;;
69220;SDS011;56331;51.992;20.910;2023-02-28T13:15:08;3.22;;;2.33;;
69220;SDS011;56331;51.992;20.910;2023-02-28T13:17:40;4.22;;;2.60;;
69220;SDS011;56331;51.992;20.910;2023-02-28T13:20:17;3.72;;;2.60;;
69220;SDS011;56331;51.992;20.910;2023-02-28T13:22:47;4.15;;;2.37;;
69220;SDS011;56331;51.992;20.910;2023-02-28T13:28:11;5.33;;;2.83;;
69220;SDS011;56331;51.992;20.910;2023-02-28T13:33:33;3.25;;;2.40;;
69220;SDS011;56331;51.992;20.910;2023-02-28T13:38:34;3.85;;;2.80;;
69220;SDS011;56331;51.992;20.910;2023-02-28T13:41:35;4.00;;;2.60;;
69220;SDS011;56331;51.992;20.910;2023-02-28T13:44:07;5.12;;;2.92;;
69220;SDS011;56331;51.992;20.910;2023-02-28T13:57:42;6.03;;;2.85;;
69220;SDS011;56331;51.992;20.910;2023-02-28T14:00:31;3.92;;;2.50;;
69220;SDS011;56331;51.992;20.910;2023-02-28T14:11:36;4.62;;;3.00;;
69220;SDS011;56331;51.992;20.910;2023-02-28T14:19:12;3.33;;;2.33;;
69220;SDS011;56331;51.992;20.910;2023-02-28T14:30:03;4.15;;;2.80;;
69220;SDS011;56331;51.992;20.910;2023-02-28T14:38:32;5.75;;;2.67;;
69220;SDS011;56331;51.992;20.910;2023-02-28T14:41:06;4.58;;;3.15;;
69220;SDS011;56331;51.992;20.910;2023-02-28T14:46:02;4.80;;;3.00;;
69220;SDS011;56331;51.992;20.910;2023-02-28T14:48:34;3.83;;;2.72;;
69220;SDS011;56331;51.992;20.910;2023-02-28T14:51:03;9.23;;;4.08;;
69220;SDS011;56331;51.992;20.910;2023-02-28T14:53:30;11.30;;;5.70;;
69220;SDS011;56331;51.992;20.910;2023-02-28T14:55:59;14.50;;;6.10;;
69220;SDS011;56331;51.992;20.910;2023-02-28T14:58:27;11.97;;;6.40;;
69220;SDS011;56331;51.992;20.910;2023-02-28T15:00:57;12.33;;;6.12;;
69220;SDS011;56331;51.992;20.910;2023-02-28T15:03:36;10.85;;;5.60;;
69220;SDS011;56331;51.992;20.910;2023-02-28T15:06:05;10.32;;;5.50;;
69220;SDS011;56331;51.992;20.910;2023-02-28T15:08:34;11.97;;;5.65;;
69220;SDS011;56331;51.992;20.910;2023-02-28T15:13:40;11.97;;;5.62;;
69220;SDS011;56331;51.992;20.910;2023-02-28T15:16:11;11.95;;;5.75;;
69220;SDS011;56331;51.992;20.910;2023-02-28T15:18:57;8.65;;;4.75;;
69220;SDS011;56331;51.992;20.910;2023-02-28T15:21:30;11.88;;;5.78;;
69220;SDS011;56331;51.992;20.910;2023-02-28T15:26:33;10.38;;;5.50;;
69220;SDS011;56331;51.992;20.910;2023-02-28T15:29:13;11.88;;;5.50;;
69220;SDS011;56331;51.992;20.910;2023-02-28T15:32:01;11.97;;;6.10;;
69220;SDS011;56331;51.992;20.910;2023-02-28T15:34:22;10.23;;;5.40;;
69220;SDS011;56331;51.992;20.910;2023-02-28T15:40:05;11.70;;;5.62;;
69220;SDS011;56331;51.992;20.910;2023-02-28T15:42:43;7.30;;;4.80;;
69220;SDS011;56331;51.992;20.910;2023-02-28T15:45:28;7.12;;;4.62;;
69220;SDS011;56331;51.992;20.910;2023-02-28T15:48:00;10.43;;;5.15;;
69220;SDS011;56331;51.992;20.910;2023-02-28T15:50:27;9.43;;;4.85;;
69220;SDS011;56331;51.992;20.910;2023-02-28T15:52:54;8.83;;;5.10;;
69220;SDS011;56331;51.992;20.910;2023-02-28T15:55:21;8.33;;;5.15;;
69220;SDS011;56331;51.992;20.910;2023-02-28T15:57:53;12.65;;;5.37;;
69220;SDS011;56331;51.992;20.910;2023-02-28T16:00:24;8.58;;;5.12;;
69220;SDS011;56331;51.992;20.910;2023-02-28T16:02:53;9.68;;;5.00;;
69220;SDS011;56331;51.992;20.910;2023-02-28T16:05:27;10.70;;;5.62;;
69220;SDS011;56331;51.992;20.910;2023-02-28T16:08:06;12.68;;;5.33;;
69220;SDS011;56331;51.992;20.910;2023-02-28T16:10:33;12.95;;;5.90;;
69220;SDS011;56331;51.992;20.910;2023-02-28T16:13:01;11.30;;;6.17;;
69220;SDS011;56331;51.992;20.910;2023-02-28T16:15:28;9.88;;;5.47;;
69220;SDS011;56331;51.992;20.910;2023-02-28T16:17:57;13.40;;;5.83;;
69220;SDS011;56331;51.992;20.910;2023-02-28T16:20:29;12.33;;;6.35;;
69220;SDS011;56331;51.992;20.910;2023-02-28T16:22:57;12.60;;;5.87;;
69220;SDS011;56331;51.992;20.910;2023-02-28T16:25:32;13.62;;;6.80;;
69220;SDS011;56331;51.992;20.910;2023-02-28T16:28:01;12.90;;;6.10;;
69220;SDS011;56331;51.992;20.910;2023-02-28T16:30:28;14.23;;;6.28;;
69220;SDS011;56331;51.992;20.910;2023-02-28T16:32:58;16.05;;;6.58;;
69220;SDS011;56331;51.992;20.910;2023-02-28T16:35:25;12.80;;;6.37;;
69220;SDS011;56331;51.992;20.910;2023-02-28T16:37:52;13.15;;;6.67;;
69220;SDS011;56331;51.992;20.910;2023-02-28T16:40:20;11.93;;;6.25;;
69220;SDS011;56331;51.992;20.910;2023-02-28T16:42:49;12.23;;;6.12;;
69220;SDS011;56331;51.992;20.910;2023-02-28T16:45:19;11.73;;;6.20;;
69220;SDS011;56331;51.992;20.910;2023-02-28T16:47:50;11.38;;;5.92;;
69220;SDS011;56331;51.992;20.910;2023-02-28T16:50:18;17.67;;;6.58;;
69220;SDS011;56331;51.992;20.910;2023-02-28T16:52:49;13.68;;;5.75;;
69220;SDS011;56331;51.992;20.910;2023-02-28T16:55:18;11.43;;;6.10;;
69220;SDS011;56331;51.992;20.910;2023-02-28T16:57:46;14.50;;;6.33;;
69220;SDS011;56331;51.992;20.910;2023-02-28T17:00:15;12.98;;;6.42;;
69220;SDS011;56331;51.992;20.910;2023-02-28T17:02:42;11.43;;;6.35;;
69220;SDS011;56331;51.992;20.910;2023-02-28T17:05:10;13.93;;;6.28;;
69220;SDS011;56331;51.992;20.910;2023-02-28T17:07:38;10.13;;;5.75;;
69220;SDS011;56331;51.992;20.910;2023-02-28T17:10:10;13.78;;;6.70;;
69220;SDS011;56331;51.992;20.910;2023-02-28T17:12:38;14.78;;;6.55;;
69220;SDS011;56331;51.992;20.910;2023-02-28T17:15:05;11.85;;;5.80;;
69220;SDS011;56331;51.992;20.910;2023-02-28T17:17:33;11.73;;;6.08;;
69220;SDS011;56331;51.992;20.910;2023-02-28T17:20:02;11.05;;;6.15;;
69220;SDS011;56331;51.992;20.910;2023-02-28T17:22:29;9.03;;;5.37;;
69220;SDS011;56331;51.992;20.910;2023-02-28T17:24:55;12.85;;;6.40;;
69220;SDS011;56331;51.992;20.910;2023-02-28T17:27:23;10.78;;;6.37;;
69220;SDS011;56331;51.992;20.910;2023-02-28T17:29:50;11.63;;;6.72;;
69220;SDS011;56331;51.992;20.910;2023-02-28T17:32:16;12.18;;;7.80;;
69220;SDS011;56331;51.992;20.910;2023-02-28T17:34:43;11.28;;;7.35;;
69220;SDS011;56331;51.992;20.910;2023-02-28T17:37:19;10.25;;;7.17;;